createdAt,value
2018-11-23T00:01:06.685Z,61.60
2018-11-23T00:03:09.769Z,58.77
2018-11-23T00:05:13.031Z,54.87
2018-11-23T00:07:16.101Z,60.43
2018-11-23T00:09:19.198Z,62.07
2018-11-23T00:11:22.333Z,64.40
2018-11-23T00:13:25.413Z,60.07
2018-11-23T00:15:28.497Z,62.63
2018-11-23T00:17:31.703Z,73.20
2018-11-23T00:19:34.842Z,74.00
2018-11-23T00:21:37.920Z,67.07
2018-11-23T00:23:40.982Z,71.93
2018-11-23T00:25:44.133Z,77.30
2018-11-23T00:27:47.341Z,60.77
2018-11-23T00:29:50.469Z,77.20
2018-11-23T00:31:53.617Z,84.20
2018-11-23T00:33:56.797Z,69.57
2018-11-23T00:35:59.945Z,67.83
2018-11-23T00:38:03.249Z,66.27
2018-11-23T00:40:08.258Z,63.73
2018-11-23T00:42:11.385Z,74.77
2018-11-23T00:44:14.578Z,79.63
2018-11-23T00:46:17.789Z,92.10
2018-11-23T00:48:20.927Z,82.43
2018-11-23T00:50:24.754Z,74.27
2018-11-23T00:52:27.929Z,77.33
2018-11-23T00:54:31.066Z,80.03
2018-11-23T00:56:34.173Z,77.20
2018-11-23T00:58:37.302Z,78.47
2018-11-23T01:00:40.433Z,78.13
2018-11-23T01:02:43.747Z,73.37
2018-11-23T01:04:46.875Z,75.50
2018-11-23T01:06:49.997Z,72.07
2018-11-23T01:08:53.174Z,68.50
2018-11-23T01:10:56.303Z,61.63
2018-11-23T01:12:59.590Z,58.77
2018-11-23T01:15:03.063Z,57.10
2018-11-23T01:17:06.403Z,64.27
2018-11-23T01:19:09.739Z,54.40
2018-11-23T01:21:12.958Z,48.07
2018-11-23T01:23:16.096Z,53.87
2018-11-23T01:25:20.341Z,47.37
2018-11-23T01:27:23.562Z,41.60
2018-11-23T01:29:26.742Z,43.63
2018-11-23T01:31:29.906Z,44.10
2018-11-23T01:33:33.112Z,49.93
2018-11-23T01:35:36.196Z,56.53
2018-11-23T01:37:39.345Z,44.23
2018-11-23T01:39:42.503Z,44.80
2018-11-23T01:41:45.647Z,42.67
2018-11-23T01:43:48.777Z,41.37
2018-11-23T01:45:51.905Z,49.63
2018-11-23T01:47:55.046Z,45.07
2018-11-23T01:49:58.175Z,49.10
2018-11-23T01:52:01.325Z,42.37
2018-11-23T01:54:04.887Z,41.27
2018-11-23T01:56:08.045Z,48.00
2018-11-23T01:58:11.177Z,47.63
2018-11-23T02:00:17.005Z,46.20
2018-11-23T02:02:20.191Z,43.53
2018-11-23T02:04:23.330Z,43.03
2018-11-23T02:06:26.443Z,45.43
2018-11-23T02:08:29.577Z,41.17
2018-11-23T02:10:32.961Z,49.63
2018-11-23T02:12:36.276Z,46.27
2018-11-23T02:14:39.564Z,43.93
2018-11-23T02:16:42.777Z,45.30
2018-11-23T02:18:46.342Z,45.00
2018-11-23T02:20:49.746Z,42.53
2018-11-23T02:22:53.293Z,46.27
2018-11-23T02:24:58.258Z,49.57
2018-11-23T02:27:01.836Z,48.33
2018-11-23T02:29:06.177Z,48.90
2018-11-23T02:31:11.589Z,49.37
2018-11-23T02:33:18.974Z,47.57
2018-11-23T02:35:24.365Z,48.57
2018-11-23T02:38:35.201Z,46.67
2018-11-23T02:40:39.221Z,45.80
2018-11-23T02:42:44.063Z,53.07
2018-11-23T02:44:50.201Z,49.27
2018-11-23T02:46:54.501Z,51.37
2018-11-23T02:48:59.931Z,58.47
2018-11-23T02:51:03.360Z,55.10
2018-11-23T02:53:08.841Z,61.83
2018-11-23T02:55:13.157Z,64.03
2018-11-23T02:57:16.478Z,65.60
2018-11-23T02:59:23.947Z,67.87
2018-11-23T03:01:26.222Z,71.20
2018-11-23T03:03:30.756Z,73.73
2018-11-23T03:05:34.667Z,72.10
2018-11-23T03:07:38.429Z,80.67
2018-11-23T03:09:41.713Z,82.70
2018-11-23T03:11:45.970Z,74.20
2018-11-23T03:13:51.971Z,95.37
2018-11-23T03:15:55.913Z,91.03
2018-11-23T03:18:01.889Z,89.07
2018-11-23T03:20:10.139Z,93.63
2018-11-23T03:22:14.914Z,94.60
2018-11-23T03:24:19.903Z,111.50
2018-11-23T03:26:25.334Z,87.67
2018-11-23T03:28:31.588Z,89.00
2018-11-23T03:30:36.295Z,121.50
2018-11-23T03:32:41.426Z,101.47
2018-11-23T03:34:48.286Z,113.27
2018-11-23T03:36:52.363Z,112.87
2018-11-23T03:38:58.081Z,123.77
2018-11-23T03:41:02.835Z,108.67
2018-11-23T03:43:08.701Z,122.47
2018-11-23T03:45:14.522Z,106.13
2018-11-23T03:47:26.550Z,108.63
2018-11-23T03:49:29.902Z,122.73
2018-11-23T03:51:34.586Z,103.93
2018-11-23T03:53:37.736Z,111.90
2018-11-23T03:55:40.847Z,119.57
2018-11-23T03:57:43.940Z,127.37
2018-11-23T03:59:47.094Z,135.53
2018-11-23T04:01:50.230Z,133.73
2018-11-23T04:03:53.301Z,127.53
2018-11-23T04:05:56.421Z,133.17
2018-11-23T04:07:59.510Z,144.20
2018-11-23T04:10:02.629Z,123.57
2018-11-23T04:12:05.763Z,135.93
2018-11-23T04:14:08.878Z,152.80
2018-11-23T04:16:13.093Z,143.83
2018-11-23T04:18:16.214Z,117.90
2018-11-23T04:20:19.336Z,121.50
2018-11-23T04:22:22.498Z,127.43
2018-11-23T04:24:25.623Z,121.00
2018-11-23T04:26:28.724Z,132.47
2018-11-23T04:28:31.814Z,128.87
2018-11-23T04:30:34.884Z,122.93
2018-11-23T04:32:38.009Z,146.90
2018-11-23T04:34:41.104Z,160.23
2018-11-23T04:36:44.215Z,132.60
2018-11-23T04:38:47.359Z,127.50
2018-11-23T04:40:50.409Z,133.10
2018-11-23T04:42:53.498Z,143.77
2018-11-23T04:44:56.585Z,131.83
2018-11-23T04:46:59.681Z,110.73
2018-11-23T04:49:02.786Z,118.60
2018-11-23T04:51:05.914Z,115.13
2018-11-23T04:53:08.941Z,133.13
2018-11-23T04:55:12.278Z,127.50
2018-11-23T04:57:15.397Z,126.40
2018-11-23T04:59:18.484Z,133.03
2018-11-23T05:01:21.712Z,111.03
2018-11-23T05:03:24.856Z,126.90
2018-11-23T05:05:27.968Z,126.43
2018-11-23T05:07:31.070Z,127.83
2018-11-23T05:09:34.164Z,115.47
2018-11-23T05:11:37.521Z,123.57
2018-11-23T05:13:42.466Z,131.43
2018-11-23T05:15:45.602Z,128.43
2018-11-23T05:17:48.746Z,138.23
2018-11-23T05:19:51.848Z,127.93
2018-11-23T05:21:54.931Z,116.00
2018-11-23T05:23:58.013Z,129.80
2018-11-23T05:26:04.485Z,146.27
2018-11-23T05:28:07.585Z,141.27
2018-11-23T05:30:14.989Z,153.83
2018-11-23T05:32:18.143Z,167.97
2018-11-23T05:34:21.558Z,171.77
2018-11-23T05:36:24.673Z,142.70
2018-11-23T05:38:29.909Z,164.20
2018-11-23T05:40:33.001Z,159.27
2018-11-23T05:42:36.328Z,166.67
2018-11-23T05:44:39.528Z,158.87
2018-11-23T05:46:42.720Z,176.10
2018-11-23T05:48:45.817Z,172.57
2018-11-23T05:50:48.901Z,156.43
2018-11-23T05:52:52.157Z,184.60
2018-11-23T05:54:55.213Z,173.20
2018-11-23T05:56:58.289Z,163.40
2018-11-23T05:59:01.395Z,191.20
2018-11-23T06:01:04.605Z,179.67
2018-11-23T06:03:07.682Z,159.53
2018-11-23T06:05:10.846Z,196.37
2018-11-23T06:07:13.999Z,188.23
2018-11-23T06:09:17.083Z,179.13
2018-11-23T06:11:21.236Z,164.63
2018-11-23T06:13:24.325Z,168.63
2018-11-23T06:15:27.406Z,156.03
2018-11-23T06:17:30.501Z,149.50
2018-11-23T06:19:33.581Z,152.80
2018-11-23T06:21:36.669Z,166.27
2018-11-23T06:23:39.757Z,151.60
2018-11-23T06:25:45.073Z,166.43
2018-11-23T06:27:48.305Z,150.93
2018-11-23T06:29:51.369Z,195.63
2018-11-23T06:31:54.434Z,221.90
2018-11-23T06:33:57.570Z,154.13
2018-11-23T06:36:00.666Z,189.77
2018-11-23T06:38:03.754Z,203.33
2018-11-23T06:40:08.163Z,184.43
2018-11-23T06:42:11.269Z,216.00
2018-11-23T06:44:14.430Z,192.47
2018-11-23T06:46:17.525Z,191.10
2018-11-23T06:48:20.617Z,192.63
2018-11-23T06:50:23.722Z,182.90
2018-11-23T06:52:26.880Z,204.63
2018-11-23T06:54:30.589Z,232.20
2018-11-23T06:56:57.458Z,206.13
2018-11-23T06:59:19.588Z,211.13
2018-11-23T07:03:59.556Z,202.90
2018-11-23T07:09:21.518Z,197.37
2018-11-23T07:11:42.310Z,217.13
2018-11-23T07:14:10.490Z,242.13
2018-11-23T07:18:53.902Z,244.93
2018-11-23T07:21:42.393Z,239.53
2018-11-23T07:25:47.050Z,235.00
2018-11-23T07:28:23.232Z,237.83
2018-11-23T07:30:44.839Z,245.03
2018-11-23T07:32:47.929Z,218.77
2018-11-23T07:34:51.037Z,223.17
2018-11-23T07:36:54.123Z,212.47
2018-11-23T07:38:57.210Z,233.50
2018-11-23T07:41:11.624Z,255.33
2018-11-23T07:43:14.756Z,250.23
2018-11-23T07:45:18.053Z,238.47
2018-11-23T07:47:21.426Z,238.43
2018-11-23T07:49:24.794Z,255.50
2018-11-23T07:51:28.202Z,229.87
2018-11-23T07:53:31.669Z,227.03
2018-11-23T07:55:35.072Z,236.73
2018-11-23T07:57:38.518Z,228.67
2018-11-23T07:59:41.946Z,248.60
2018-11-23T08:01:45.305Z,227.47
2018-11-23T08:03:48.769Z,237.50
2018-11-23T08:05:52.142Z,224.50
2018-11-23T08:07:57.867Z,232.97
2018-11-23T08:10:02.249Z,210.07
2018-11-23T08:12:06.053Z,223.10
2018-11-23T08:14:10.071Z,193.60
2018-11-23T08:16:13.471Z,228.13
2018-11-23T08:18:16.814Z,245.43
2018-11-23T08:20:21.318Z,238.93
2018-11-23T08:22:24.754Z,218.70
2018-11-23T08:24:28.220Z,248.43
2018-11-23T08:26:31.661Z,219.90
2018-11-23T08:28:35.186Z,254.37
2018-11-23T08:30:41.937Z,261.17
2018-11-23T08:32:46.364Z,274.50
2018-11-23T08:34:50.742Z,243.80
2018-11-23T08:36:54.191Z,222.37
2018-11-23T08:38:57.480Z,200.03
2018-11-23T08:41:00.917Z,127.57
2018-11-23T08:43:04.357Z,115.50
2018-11-23T08:45:09.825Z,114.10
2018-11-23T08:47:13.149Z,120.50
2018-11-23T08:49:16.519Z,122.23
2018-11-23T08:51:19.948Z,130.00
2018-11-23T08:53:30.422Z,121.03
2018-11-23T08:55:33.861Z,131.03
2018-11-23T08:57:37.058Z,135.70
2018-11-23T08:59:40.316Z,138.43
2018-11-23T09:01:43.529Z,133.07
2018-11-23T09:03:46.760Z,139.50
2018-11-23T09:05:50.017Z,148.87
2018-11-23T09:07:54.472Z,136.90
2018-11-23T09:09:57.729Z,122.33
2018-11-23T09:12:01.248Z,112.13
2018-11-23T09:14:04.993Z,135.10
2018-11-23T09:16:08.617Z,133.87
2018-11-23T09:18:11.898Z,117.87
2018-11-23T09:20:16.030Z,132.27
2018-11-23T09:22:23.538Z,128.57
2018-11-23T09:24:22.530Z,132.90
2018-11-23T09:26:26.370Z,127.70
2018-11-23T09:28:29.753Z,125.27
2018-11-23T09:30:33.116Z,127.67
2018-11-23T09:32:37.009Z,129.37
2018-11-23T09:34:40.827Z,129.03
2018-11-23T09:36:43.493Z,109.30
2018-11-23T09:38:46.783Z,120.30
2018-11-23T09:40:49.992Z,109.30
2018-11-23T09:42:53.589Z,111.03
2018-11-23T09:44:56.811Z,120.87
2018-11-23T09:47:00.095Z,106.03
2018-11-23T09:49:03.365Z,114.67
2018-11-23T09:51:06.612Z,101.33
2018-11-23T09:53:09.852Z,105.40
2018-11-23T09:55:13.093Z,105.40
2018-11-23T09:57:16.374Z,98.17
2018-11-23T09:59:19.690Z,98.30
2018-11-23T10:01:24.027Z,96.27
2018-11-23T10:05:45.863Z,91.90
2018-11-23T10:07:50.582Z,84.47
2018-11-23T10:09:54.017Z,88.47
2018-11-23T10:12:08.122Z,81.77
2018-11-23T10:14:30.705Z,80.13
2018-11-23T10:16:35.139Z,83.33
2018-11-23T10:18:39.635Z,79.80
2018-11-23T10:20:46.106Z,73.50
2018-11-23T10:22:50.345Z,77.57
2018-11-23T10:24:55.546Z,79.53
2018-11-23T10:26:58.843Z,62.83
2018-11-23T10:29:02.411Z,69.97
2018-11-23T10:31:09.848Z,68.53
2018-11-23T10:33:14.571Z,71.00
2018-11-23T10:35:19.363Z,71.23
2018-11-23T10:37:24.697Z,66.73
2018-11-23T10:39:31.419Z,65.03
2018-11-23T10:41:39.364Z,69.40
2018-11-23T10:43:42.837Z,61.53
2018-11-23T10:45:48.188Z,62.50
2018-11-23T10:47:52.459Z,56.77
2018-11-23T10:49:58.603Z,68.40
2018-11-23T10:52:02.040Z,61.30
2018-11-23T10:54:09.345Z,60.10
2018-11-23T10:56:14.270Z,64.17
2018-11-23T10:58:23.191Z,59.70
2018-11-23T11:00:31.985Z,59.37
2018-11-23T11:02:44.005Z,61.67
2018-11-23T11:04:55.096Z,63.03
2018-11-23T11:07:04.367Z,62.80
2018-11-23T11:09:51.960Z,65.37
2018-11-23T11:11:56.984Z,64.50
2018-11-23T11:16:27.543Z,56.13
2018-11-23T11:18:35.217Z,61.20
2018-11-23T11:20:40.345Z,55.90
2018-11-23T11:24:00.269Z,53.03
2018-11-23T11:29:12.721Z,61.23
2018-11-23T11:31:35.290Z,50.27
2018-11-23T11:33:38.603Z,58.67
2018-11-23T11:39:02.126Z,52.00
2018-11-23T11:41:12.806Z,59.20
2018-11-23T11:43:16.197Z,57.40
2018-11-23T11:45:28.590Z,47.80
2018-11-23T11:47:31.867Z,57.07
2018-11-23T11:49:35.215Z,49.20
2018-11-23T11:52:18.692Z,53.37
2018-11-23T11:54:24.719Z,50.27
2018-11-23T11:56:28.353Z,57.03
2018-11-23T11:58:34.442Z,55.13
2018-11-23T12:00:47.033Z,51.00
2018-11-23T12:02:51.331Z,60.30
2018-11-23T12:07:34.858Z,57.83
2018-11-23T12:09:43.153Z,50.67
2018-11-23T12:11:48.083Z,46.53
2018-11-23T12:13:55.326Z,49.00
2018-11-23T12:15:58.909Z,49.10
2018-11-23T12:18:14.914Z,58.27
2018-11-23T12:20:23.019Z,53.03
2018-11-23T12:22:26.375Z,46.80
2018-11-23T12:24:30.061Z,44.37
2018-11-23T12:26:38.115Z,53.57
2018-11-23T12:28:41.895Z,50.43
2018-11-23T12:30:45.127Z,50.83
2018-11-23T12:35:37.151Z,48.47
2018-11-23T12:37:55.476Z,50.80
2018-11-23T12:39:58.932Z,48.33
2018-11-23T12:42:27.345Z,47.03
2018-11-23T12:44:30.661Z,49.77
2018-11-23T12:46:42.530Z,47.60
2018-11-23T12:48:46.566Z,50.07
2018-11-23T12:50:51.788Z,44.07
2018-11-23T12:52:56.248Z,46.67
2018-11-23T12:54:59.538Z,49.70
2018-11-23T12:57:02.861Z,45.57
2018-11-23T12:59:06.131Z,46.30
2018-11-23T13:01:09.739Z,43.37
2018-11-23T13:03:13.039Z,46.03
2018-11-23T13:05:16.498Z,46.90
2018-11-23T13:07:19.849Z,53.13
2018-11-23T13:09:23.184Z,52.73
2018-11-23T13:11:26.490Z,47.07
2018-11-23T13:13:29.775Z,51.20
2018-11-23T13:15:33.056Z,56.60
2018-11-23T13:17:36.399Z,43.80
2018-11-23T13:19:39.525Z,44.10
2018-11-23T13:21:42.609Z,45.30
2018-11-23T13:23:46.713Z,48.43
2018-11-23T13:25:49.824Z,44.67
2018-11-23T13:27:52.953Z,43.27
2018-11-23T13:29:56.076Z,47.70
2018-11-23T13:32:00.214Z,55.33
2018-11-23T13:34:02.723Z,47.70
2018-11-23T13:36:09.424Z,48.40
2018-11-23T13:38:14.111Z,45.70
2018-11-23T13:40:18.731Z,50.17
2018-11-23T13:42:21.965Z,48.93
2018-11-23T13:44:25.232Z,51.30
2018-11-23T13:46:28.501Z,48.40
2018-11-23T13:48:31.814Z,51.70
2018-11-23T13:50:35.113Z,49.40
2018-11-23T13:52:38.378Z,44.10
2018-11-23T13:54:41.609Z,51.73
2018-11-23T13:56:44.968Z,47.00
2018-11-23T13:58:48.226Z,49.57
2018-11-23T14:00:51.488Z,52.57
2018-11-23T14:02:54.729Z,47.23
2018-11-23T14:04:57.845Z,59.90
2018-11-23T14:07:00.950Z,53.77
2018-11-23T14:09:07.695Z,45.90
2018-11-23T14:11:13.825Z,44.77
2018-11-23T14:13:17.066Z,48.57
2018-11-23T14:15:27.254Z,55.87
2018-11-23T14:17:30.816Z,50.00
2018-11-23T14:19:33.962Z,48.63
2018-11-23T14:21:37.093Z,56.30
2018-11-23T14:23:40.191Z,55.43
2018-11-23T14:25:43.287Z,55.30
2018-11-23T14:27:46.840Z,52.00
2018-11-23T14:29:50.021Z,52.57
2018-11-23T14:31:53.214Z,55.93
2018-11-23T14:33:56.325Z,52.47
2018-11-23T14:36:02.646Z,54.97
2018-11-23T14:38:21.341Z,54.60
2018-11-23T14:44:25.270Z,57.63
2018-11-23T14:46:38.673Z,55.10
2018-11-23T14:48:51.206Z,61.37
2018-11-23T14:50:55.504Z,60.93
2018-11-23T14:57:59.485Z,55.60
2018-11-23T15:00:10.712Z,64.73
2018-11-23T15:02:44.606Z,59.20
2018-11-23T15:05:01.141Z,58.20
2018-11-23T15:07:04.451Z,54.67
2018-11-23T15:09:33.623Z,66.03
2018-11-23T15:11:44.946Z,69.23
2018-11-23T15:13:48.790Z,60.17
2018-11-23T15:15:53.626Z,61.10
2018-11-23T15:17:57.682Z,65.33
2018-11-23T15:20:09.748Z,61.20
2018-11-23T15:22:19.308Z,66.10
2018-11-23T15:24:22.522Z,64.63
2018-11-23T15:26:28.678Z,60.27
2018-11-23T15:28:32.066Z,61.30
2018-11-23T15:30:36.872Z,64.83
2018-11-23T15:32:47.197Z,65.73
2018-11-23T15:34:52.264Z,63.93
2018-11-23T15:36:55.795Z,70.80
2018-11-23T15:38:59.150Z,69.37
2018-11-23T15:41:03.069Z,70.13
2018-11-23T15:43:19.085Z,62.80
2018-11-23T15:45:25.619Z,65.97
2018-11-23T15:49:53.634Z,71.67
2018-11-23T15:52:02.048Z,70.27
2018-11-23T15:54:05.874Z,67.20
2018-11-23T15:56:09.019Z,71.17
2018-11-23T15:58:13.441Z,69.90
2018-11-23T16:00:21.986Z,69.87
2018-11-23T16:02:26.116Z,73.77
2018-11-23T16:04:29.298Z,69.13
2018-11-23T16:06:32.563Z,70.00
2018-11-23T16:08:35.773Z,72.37
2018-11-23T16:10:42.074Z,78.03
2018-11-23T16:12:46.958Z,72.53
2018-11-23T16:14:51.466Z,82.93
2018-11-23T16:16:54.940Z,107.60
2018-11-23T16:18:58.179Z,80.77
2018-11-23T16:21:01.358Z,82.03
2018-11-23T16:23:10.996Z,80.20
2018-11-23T16:25:14.355Z,70.97
2018-11-23T16:27:17.645Z,74.87
2018-11-23T16:29:20.945Z,76.57
2018-11-23T16:31:24.594Z,78.43
2018-11-23T16:33:29.295Z,84.80
2018-11-23T16:35:35.065Z,77.53
2018-11-23T16:37:38.308Z,86.97
2018-11-23T16:39:42.598Z,79.53
2018-11-23T16:41:50.213Z,86.97
2018-11-23T16:43:56.536Z,88.40
2018-11-23T16:46:05.641Z,98.80
2018-11-23T16:48:09.962Z,92.47
2018-11-23T16:53:01.588Z,99.13
2018-11-23T16:55:39.126Z,104.57
2018-11-23T16:57:44.770Z,89.67
2018-11-23T17:00:10.202Z,91.27
2018-11-23T17:02:13.435Z,92.57
2018-11-23T17:04:16.698Z,106.60
2018-11-23T17:06:19.809Z,104.80
2018-11-23T17:08:22.926Z,100.17
2018-11-23T17:10:27.853Z,102.80
2018-11-23T17:12:30.989Z,96.63
2018-11-23T17:14:34.469Z,97.47
2018-11-23T17:16:37.602Z,91.60
2018-11-23T17:18:40.709Z,94.13
2018-11-23T17:20:43.829Z,98.93
2018-11-23T17:22:48.126Z,82.20
2018-11-23T17:24:51.278Z,88.70
2018-11-23T17:26:54.413Z,99.13
2018-11-23T17:28:57.521Z,103.37
2018-11-23T17:31:00.641Z,88.07
2018-11-23T17:33:03.922Z,91.90
2018-11-23T17:35:07.473Z,91.10
2018-11-23T17:37:10.617Z,93.90
2018-11-23T17:39:13.822Z,96.27
2018-11-23T17:41:16.953Z,198.43
2018-11-23T17:43:20.058Z,142.67
2018-11-23T17:45:24.934Z,100.50
2018-11-23T17:47:28.421Z,108.40
2018-11-23T17:49:31.528Z,107.93
2018-11-23T17:51:38.331Z,103.77
2018-11-23T17:53:41.796Z,100.80
2018-11-23T17:55:44.910Z,102.73
2018-11-23T17:57:48.276Z,113.80
2018-11-23T17:59:51.374Z,111.57
2018-11-23T18:01:54.498Z,144.03
2018-11-23T18:03:57.595Z,123.40
2018-11-23T18:06:00.689Z,110.83
2018-11-23T18:08:04.470Z,133.40
2018-11-23T18:10:09.318Z,118.63
2018-11-23T18:12:12.429Z,120.27
2018-11-23T18:14:15.529Z,111.60
2018-11-23T18:16:18.624Z,115.47
2018-11-23T18:18:21.752Z,183.27
2018-11-23T18:20:25.726Z,138.37
2018-11-23T18:22:28.834Z,238.70
2018-11-23T18:24:31.937Z,144.83
2018-11-23T18:26:35.069Z,140.83
2018-11-23T18:28:38.161Z,128.93
2018-11-23T18:30:41.269Z,149.33
2018-11-23T18:32:44.365Z,125.97
2018-11-23T18:34:47.449Z,143.00
2018-11-23T18:36:50.590Z,130.87
2018-11-23T18:57:24.029Z,116.00
2018-11-23T18:59:40.111Z,131.73
2018-11-23T19:14:47.359Z,107.77
2018-11-23T19:16:59.126Z,117.40
2018-11-23T19:19:16.970Z,132.83
2018-11-23T19:21:31.478Z,128.67
2018-11-23T19:23:49.234Z,139.93
2018-11-23T19:26:08.187Z,148.07
2018-11-23T19:28:12.123Z,151.03
2018-11-23T19:30:37.966Z,162.90
2018-11-23T19:32:45.661Z,161.97
2018-11-23T19:35:11.661Z,142.27
2018-11-23T19:37:25.269Z,155.03
2018-11-23T19:39:31.728Z,129.33
2018-11-23T19:41:44.458Z,135.53
2018-11-23T19:43:55.582Z,168.10
2018-11-23T19:46:11.891Z,147.50
2018-11-23T19:48:35.539Z,171.53
2018-11-23T19:53:49.265Z,154.43
2018-11-23T19:56:06.662Z,144.27
2018-11-23T19:58:20.914Z,168.13
2018-11-23T20:00:27.467Z,176.10
2018-11-23T20:02:42.726Z,142.67
2018-11-23T20:04:51.016Z,165.43
2018-11-23T20:09:47.288Z,180.43
2018-11-23T20:11:59.819Z,163.47
2018-11-23T20:14:18.711Z,167.03
2018-11-23T20:16:30.988Z,174.97
2018-11-23T20:19:18.329Z,193.60
2018-11-23T20:21:42.349Z,193.90
2018-11-23T20:24:15.211Z,188.20
2018-11-23T20:26:38.327Z,176.90
2018-11-23T20:37:49.806Z,186.77
2018-11-23T20:40:19.061Z,175.93
2018-11-23T20:42:46.400Z,208.80
2018-11-23T20:45:12.276Z,204.63
2018-11-23T20:50:42.766Z,186.60
2018-11-23T20:53:04.194Z,229.43
2018-11-23T20:55:30.598Z,209.87
2018-11-23T20:58:05.719Z,221.23
2018-11-23T21:00:32.900Z,174.60
2018-11-23T21:05:02.306Z,172.13
2018-11-23T21:07:26.505Z,188.10
2018-11-23T21:09:50.182Z,221.33
2018-11-23T21:11:57.266Z,204.67
2018-11-23T21:14:08.766Z,192.83
2018-11-23T21:16:20.049Z,227.60
2018-11-23T21:18:31.397Z,198.37
2018-11-23T21:20:47.181Z,217.60
2018-11-23T21:23:02.470Z,187.33
2018-11-23T21:25:21.343Z,194.33
2018-11-23T21:27:37.428Z,216.10
2018-11-23T21:30:00.636Z,229.57
2018-11-23T21:32:09.951Z,201.93
2018-11-23T21:34:17.064Z,230.83
2018-11-23T21:36:27.072Z,231.73
2018-11-23T21:38:45.741Z,211.00
2018-11-23T21:40:54.690Z,259.50
2018-11-23T21:43:04.845Z,261.03
2018-11-23T21:45:16.834Z,275.53
2018-11-23T21:47:31.343Z,244.17
2018-11-23T21:49:44.980Z,238.77
2018-11-23T21:52:25.936Z,249.00
2018-11-23T21:54:36.183Z,221.03
2018-11-23T21:56:48.874Z,231.10
2018-11-23T22:00:03.800Z,218.63
2018-11-23T22:02:22.454Z,196.83
2018-11-23T22:04:33.646Z,214.13
2018-11-23T22:06:49.883Z,224.50
2018-11-23T22:09:16.980Z,218.10
2018-11-23T22:11:26.203Z,236.93
2018-11-23T22:13:33.066Z,231.30
2018-11-23T22:15:40.316Z,264.37
2018-11-23T22:17:47.515Z,240.97
2018-11-23T22:19:59.327Z,238.37
2018-11-23T22:22:07.422Z,227.30
2018-11-23T22:24:13.389Z,213.33
2018-11-23T22:26:21.399Z,233.73
2018-11-23T22:28:26.200Z,228.07
2018-11-23T22:30:31.623Z,239.27
2018-11-23T22:32:35.853Z,227.23
2018-11-23T22:34:39.818Z,251.33
2018-11-23T22:36:44.617Z,264.77
2018-11-23T22:38:48.388Z,278.87
2018-11-23T22:40:52.509Z,288.40
2018-11-23T22:42:59.686Z,242.17
2018-11-23T22:45:03.281Z,278.03
2018-11-23T22:47:06.599Z,269.07
2018-11-23T22:49:09.957Z,273.17
2018-11-23T22:51:13.289Z,328.87
2018-11-23T22:53:16.657Z,269.70
2018-11-23T22:55:20.157Z,275.20
2018-11-23T22:57:23.480Z,270.93
2018-11-23T22:59:26.865Z,270.23
2018-11-23T23:01:30.206Z,298.87
2018-11-23T23:03:33.528Z,292.37
2018-11-23T23:05:36.880Z,276.07
2018-11-23T23:07:40.194Z,297.03
2018-11-23T23:09:43.558Z,296.67
2018-11-23T23:11:48.729Z,263.77
2018-11-23T23:13:52.056Z,260.57
2018-11-23T23:15:55.460Z,301.57
2018-11-23T23:17:58.843Z,268.63
2018-11-23T23:20:02.158Z,269.53
2018-11-23T23:22:05.484Z,276.47
2018-11-23T23:24:11.933Z,283.33
2018-11-23T23:26:12.131Z,302.40
2018-11-23T23:28:15.531Z,282.30
2018-11-23T23:30:19.911Z,285.97
2018-11-23T23:32:23.286Z,277.10
2018-11-23T23:34:26.748Z,283.60
2018-11-23T23:36:30.040Z,291.03
2018-11-23T23:38:33.387Z,283.13
2018-11-23T23:40:37.739Z,296.30
2018-11-23T23:42:41.083Z,329.93
2018-11-23T23:44:44.470Z,279.60
2018-11-23T23:46:47.811Z,298.57
2018-11-23T23:48:54.485Z,301.87
2018-11-23T23:50:58.452Z,302.20
2018-11-23T23:53:02.711Z,301.80
2018-11-23T23:55:07.239Z,348.73
2018-11-23T23:57:10.632Z,319.60
2018-11-23T23:59:13.995Z,317.10
